KMLB/MLB METAR and TAF weather

Enter ICAO airport designator
Station Type Date Time Source
KMLB METAR 2019/04/20 17:53 UTC NOAA

KMLB 201753Z 25016G23KT 10SM FEW060 24/11 A2996 RMK AO2 PK WND 26029/1659 SLP143 T02440111 10256 20161 58004


Station Type Date Time Source
KMLB Decoded METAR 2019/04/20 17:53 UTC NOAA

MELBOURNE INTERNATIONAL, FL, United States (KMLB) 28-06N 080-39W 10M
Apr 20, 2019 - 01:53 PM EDT / 2019.04.20 1753 UTC
Wind: from the WSW (250 degrees) at 18 MPH (16 KT) gusting to 26 MPH (23 KT):0
Visibility: 10 mile(s):0
Sky conditions: mostly clear
Temperature: 75.9 F (24.4 C)
Dew Point: 52.0 F (11.1 C)
Relative Humidity: 43%
Pressure (altimeter): 29.96 in. Hg (1014 hPa)
Pressure tendency: 0.01 inches (0.4 hPa) lower than three hours ago
ob: KMLB 201753Z 25016G23KT 10SM FEW060 24/11 A2996 RMK AO2 PK WND 26029/1659 SLP143 T02440111 10256 20161 58004
cycle: 18

Station Type Date Time Source
KMLB TAF 2019/04/20 18:27 UTC NOAA

TAF KMLB 201724Z 2018/2118 27016G26KT P6SM SCT045
FM210100 26006KT P6SM SCT040
FM211400 31009KT P6SM SKC

Example: see airport list